createdAt,value
2019-01-30T00:01:06.983Z,92.03
2019-01-30T00:03:39.402Z,91.77
2019-01-30T00:06:11.109Z,95.97
2019-01-30T00:08:42.612Z,96.43
2019-01-30T00:11:20.347Z,95.70
2019-01-30T00:13:52.102Z,97.63
2019-01-30T00:16:24.598Z,89.20
2019-01-30T00:18:59.088Z,84.37
2019-01-30T00:21:34.210Z,85.10
2019-01-30T00:24:08.040Z,75.13
2019-01-30T00:26:41.363Z,74.85
2019-01-30T00:29:16.894Z,60.17
2019-01-30T00:31:50.331Z,63.68
2019-01-30T00:34:22.118Z,62.70
2019-01-30T00:36:55.958Z,59.40
2019-01-30T00:39:28.236Z,53.57
2019-01-30T00:41:59.442Z,47.50
2019-01-30T00:44:35.022Z,52.95
2019-01-30T00:47:15.600Z,56.30
2019-01-30T00:49:42.239Z,62.90
2019-01-30T00:52:13.457Z,73.77
2019-01-30T00:54:46.354Z,69.87
2019-01-30T00:57:19.997Z,70.07
2019-01-30T00:59:55.454Z,76.80
2019-01-30T01:02:28.350Z,83.60
2019-01-30T01:05:00.820Z,81.92
2019-01-30T01:07:34.155Z,86.63
2019-01-30T01:10:10.265Z,87.57
2019-01-30T01:12:51.231Z,92.10
2019-01-30T01:15:24.049Z,87.20
2019-01-30T01:17:57.294Z,85.17
2019-01-30T01:20:30.642Z,82.07
2019-01-30T01:23:05.670Z,90.83
2019-01-30T01:25:38.624Z,84.00
2019-01-30T01:28:11.633Z,83.63
2019-01-30T01:30:42.707Z,79.53
2019-01-30T01:33:16.491Z,80.63
2019-01-30T01:35:52.133Z,77.83
2019-01-30T01:38:27.609Z,78.17
2019-01-30T01:41:01.616Z,81.43
2019-01-30T01:43:38.042Z,71.80
2019-01-30T01:46:09.933Z,73.17
2019-01-30T01:48:40.998Z,77.07
2019-01-30T01:51:15.039Z,74.40
2019-01-30T01:53:48.347Z,71.63
2019-01-30T01:56:20.169Z,75.62
2019-01-30T01:58:53.535Z,73.13
2019-01-30T02:01:26.427Z,66.90
2019-01-30T02:03:59.856Z,66.00
2019-01-30T02:06:31.659Z,64.03
2019-01-30T02:09:05.143Z,67.33
2019-01-30T02:11:39.187Z,62.60
2019-01-30T02:14:13.027Z,63.00
2019-01-30T02:16:45.530Z,60.40
2019-01-30T02:19:19.821Z,59.15
2019-01-30T02:21:56.769Z,59.70
2019-01-30T02:24:29.049Z,59.23
2019-01-30T02:27:01.972Z,56.80
2019-01-30T02:29:35.508Z,56.90
2019-01-30T02:32:12.640Z,52.97
2019-01-30T02:34:48.985Z,46.37
2019-01-30T02:37:21.759Z,45.63
2019-01-30T02:39:55.644Z,40.00
2019-01-30T02:42:26.785Z,36.20
2019-01-30T02:44:57.879Z,39.10
2019-01-30T02:47:30.026Z,35.95
2019-01-30T02:50:03.992Z,35.83
2019-01-30T02:52:38.513Z,38.90
2019-01-30T02:55:17.616Z,32.48
2019-01-30T02:57:49.703Z,32.03
2019-01-30T03:00:28.433Z,30.10
2019-01-30T03:03:02.973Z,34.13
2019-01-30T03:05:36.011Z,38.77
2019-01-30T03:08:11.870Z,35.97
2019-01-30T03:10:46.017Z,38.03
2019-01-30T03:13:21.173Z,34.17
2019-01-30T03:15:55.040Z,39.10
2019-01-30T03:18:27.555Z,36.50
2019-01-30T03:21:01.777Z,38.03
2019-01-30T03:23:36.573Z,34.93
2019-01-30T03:26:10.434Z,35.73
2019-01-30T03:28:42.276Z,34.10
2019-01-30T03:31:18.896Z,33.63
2019-01-30T03:33:50.692Z,30.97
2019-01-30T03:36:23.368Z,30.70
2019-01-30T03:38:57.330Z,34.03
2019-01-30T03:41:31.919Z,26.17
2019-01-30T03:44:05.802Z,28.13
2019-01-30T03:46:38.016Z,27.87
2019-01-30T03:49:10.629Z,28.27
2019-01-30T03:51:45.873Z,24.90
2019-01-30T03:54:18.743Z,21.73
2019-01-30T03:56:52.755Z,22.47
2019-01-30T03:59:25.653Z,21.30
2019-01-30T04:01:58.674Z,20.40
2019-01-30T04:04:30.930Z,21.75
2019-01-30T04:07:03.108Z,22.53
2019-01-30T04:09:36.031Z,21.93
2019-01-30T04:12:11.095Z,20.57
2019-01-30T04:14:42.999Z,22.97
2019-01-30T04:17:17.420Z,20.63
2019-01-30T04:19:49.610Z,20.57
2019-01-30T04:22:24.577Z,20.50
2019-01-30T04:25:03.890Z,23.83
2019-01-30T04:27:35.609Z,21.37
2019-01-30T04:30:13.560Z,21.25
2019-01-30T04:32:51.625Z,23.97
2019-01-30T04:35:25.611Z,26.73
2019-01-30T04:38:00.526Z,24.73
2019-01-30T04:40:31.932Z,27.30
2019-01-30T04:43:06.018Z,25.67
2019-01-30T04:45:37.793Z,22.87
2019-01-30T04:48:09.532Z,25.83
2019-01-30T04:50:43.642Z,25.17
2019-01-30T04:53:16.349Z,22.87
2019-01-30T04:55:50.973Z,22.20
2019-01-30T04:58:25.627Z,28.65
2019-01-30T05:01:00.567Z,28.27
2019-01-30T05:03:33.758Z,24.33
2019-01-30T05:06:06.882Z,23.53
2019-01-30T05:08:38.902Z,24.03
2019-01-30T05:11:10.621Z,25.70
2019-01-30T05:13:42.373Z,26.63
2019-01-30T05:16:15.360Z,27.33
2019-01-30T05:18:47.389Z,28.87
2019-01-30T05:21:19.634Z,26.20
2019-01-30T05:23:54.436Z,26.77
2019-01-30T05:26:27.387Z,29.70
2019-01-30T05:28:58.449Z,29.30
2019-01-30T05:31:29.502Z,28.00
2019-01-30T05:34:02.021Z,27.97
2019-01-30T05:36:33.464Z,27.97
2019-01-30T05:39:06.512Z,25.57
2019-01-30T05:41:42.469Z,28.80
2019-01-30T05:44:16.713Z,26.12
2019-01-30T05:46:50.119Z,26.23
2019-01-30T05:49:22.934Z,24.47
2019-01-30T05:51:55.477Z,26.47
2019-01-30T05:54:29.111Z,28.23
2019-01-30T05:57:02.468Z,25.67
2019-01-30T05:59:37.060Z,26.53
2019-01-30T06:02:12.209Z,27.97
2019-01-30T06:04:49.551Z,27.50
2019-01-30T06:07:23.087Z,28.30
2019-01-30T06:09:57.147Z,26.97
2019-01-30T06:12:29.199Z,28.63
2019-01-30T06:15:01.280Z,31.00
2019-01-30T06:17:32.798Z,30.30
2019-01-30T06:20:07.970Z,29.77
2019-01-30T06:22:39.702Z,34.73
2019-01-30T06:25:12.924Z,31.35
2019-01-30T06:27:43.953Z,33.00
2019-01-30T06:30:19.191Z,36.00
2019-01-30T06:32:52.970Z,33.48
2019-01-30T06:35:25.523Z,35.33
2019-01-30T06:37:56.612Z,37.50
2019-01-30T06:40:34.664Z,37.23
2019-01-30T06:43:09.598Z,39.15
2019-01-30T06:45:47.015Z,39.45
2019-01-30T06:48:18.753Z,37.93
2019-01-30T06:50:50.931Z,37.70
2019-01-30T06:53:23.624Z,35.90
2019-01-30T06:55:55.262Z,36.30
2019-01-30T06:58:29.493Z,35.40
2019-01-30T07:01:01.230Z,32.93
2019-01-30T07:03:33.700Z,39.13
2019-01-30T07:06:07.881Z,38.03
2019-01-30T07:08:44.065Z,38.73
2019-01-30T07:11:16.463Z,38.27
2019-01-30T07:13:48.771Z,36.80
2019-01-30T07:16:24.678Z,40.40
2019-01-30T07:18:58.952Z,41.43
2019-01-30T07:21:30.440Z,38.77
2019-01-30T07:24:04.281Z,37.70
2019-01-30T07:26:37.462Z,39.33
2019-01-30T07:29:08.968Z,39.77
2019-01-30T07:31:42.891Z,40.47
2019-01-30T07:34:14.916Z,41.30
2019-01-30T07:36:46.129Z,39.97
2019-01-30T07:39:18.175Z,45.45
2019-01-30T07:41:53.107Z,47.47
2019-01-30T07:44:25.638Z,43.55
2019-01-30T07:46:59.431Z,46.63
2019-01-30T07:49:32.499Z,48.60
2019-01-30T07:52:03.989Z,48.20
2019-01-30T07:54:36.103Z,47.83
2019-01-30T07:57:07.411Z,50.57
2019-01-30T07:59:40.076Z,47.90
2019-01-30T08:02:11.318Z,48.13
2019-01-30T08:04:43.275Z,55.17
2019-01-30T08:07:15.425Z,55.53
2019-01-30T08:09:47.245Z,50.23
2019-01-30T08:12:18.353Z,53.83
2019-01-30T08:14:53.312Z,54.83
2019-01-30T08:17:25.723Z,53.20
2019-01-30T08:19:56.860Z,57.97
2019-01-30T08:22:27.848Z,59.43
2019-01-30T08:24:58.921Z,55.97
2019-01-30T08:27:30.254Z,55.13
2019-01-30T08:30:01.693Z,58.40
2019-01-30T08:32:33.260Z,52.60
2019-01-30T08:35:07.288Z,59.93
2019-01-30T08:37:38.821Z,60.70
2019-01-30T08:40:13.432Z,61.70
2019-01-30T08:42:45.509Z,56.47
2019-01-30T08:45:19.961Z,59.38
2019-01-30T08:47:51.005Z,56.50
2019-01-30T08:50:24.237Z,59.20
2019-01-30T08:52:56.561Z,60.57
2019-01-30T08:55:32.018Z,61.17
2019-01-30T08:58:07.584Z,60.90
2019-01-30T09:00:39.112Z,63.47
2019-01-30T09:03:14.839Z,62.25
2019-01-30T09:05:44.396Z,62.67
2019-01-30T09:08:15.453Z,64.05
2019-01-30T09:10:49.963Z,66.40
2019-01-30T09:13:25.694Z,67.05
2019-01-30T09:16:01.461Z,72.12
2019-01-30T09:18:32.754Z,72.07
2019-01-30T09:21:07.488Z,65.00
2019-01-30T09:23:39.170Z,66.87
2019-01-30T09:26:17.743Z,67.50
2019-01-30T09:28:53.105Z,71.37
2019-01-30T09:31:25.829Z,79.60
2019-01-30T09:33:59.467Z,70.03
2019-01-30T09:36:30.438Z,68.33
2019-01-30T09:39:02.546Z,73.13
2019-01-30T09:41:37.167Z,75.90
2019-01-30T09:44:08.405Z,67.40
2019-01-30T09:46:41.086Z,69.27
2019-01-30T09:49:13.251Z,72.07
2019-01-30T09:51:45.775Z,73.70
2019-01-30T09:54:20.153Z,77.78
2019-01-30T09:56:53.220Z,69.10
2019-01-30T09:59:28.425Z,74.30
2019-01-30T10:02:04.988Z,77.42
2019-01-30T10:04:39.705Z,77.87
2019-01-30T10:07:10.803Z,78.30
2019-01-30T10:09:44.261Z,75.87
2019-01-30T10:12:17.747Z,73.12
2019-01-30T10:14:49.122Z,78.43
2019-01-30T10:17:21.044Z,75.50
2019-01-30T10:19:53.384Z,76.50
2019-01-30T10:22:24.461Z,72.73
2019-01-30T10:24:57.052Z,79.30
2019-01-30T10:27:28.033Z,77.60
2019-01-30T10:30:01.313Z,77.00
2019-01-30T10:32:37.062Z,79.23
2019-01-30T10:35:10.871Z,78.97
2019-01-30T10:37:42.688Z,81.47
2019-01-30T10:40:22.604Z,78.97
2019-01-30T10:42:57.429Z,75.53
2019-01-30T10:45:32.147Z,76.93
2019-01-30T10:48:04.710Z,74.00
2019-01-30T10:50:36.512Z,77.90
2019-01-30T10:53:10.596Z,77.13
2019-01-30T10:55:44.098Z,70.07
2019-01-30T10:58:20.947Z,79.00
2019-01-30T11:00:54.613Z,76.63
2019-01-30T11:03:26.834Z,80.97
2019-01-30T11:05:58.653Z,81.30
2019-01-30T11:08:30.916Z,76.30
2019-01-30T11:11:10.424Z,72.50
2019-01-30T11:13:42.532Z,68.20
2019-01-30T11:16:13.712Z,66.35
2019-01-30T11:18:45.191Z,66.50
2019-01-30T11:21:19.126Z,74.50
2019-01-30T11:23:50.247Z,69.43
2019-01-30T11:26:22.927Z,77.67
2019-01-30T11:28:57.306Z,69.57
2019-01-30T11:31:28.702Z,68.30
2019-01-30T11:34:07.267Z,67.70
2019-01-30T11:36:34.195Z,65.47
2019-01-30T11:39:09.887Z,67.40
2019-01-30T11:41:43.309Z,65.07
2019-01-30T11:44:15.378Z,63.45
2019-01-30T11:46:51.452Z,64.27
2019-01-30T11:49:24.731Z,63.60
2019-01-30T11:51:55.948Z,59.53
2019-01-30T11:54:26.986Z,60.53
2019-01-30T11:57:03.431Z,58.53
2019-01-30T11:59:35.826Z,55.28
2019-01-30T12:02:07.174Z,58.60
2019-01-30T12:04:39.021Z,54.67
2019-01-30T12:07:14.252Z,57.77
2019-01-30T12:09:46.395Z,52.27
2019-01-30T12:12:19.562Z,53.83
2019-01-30T12:14:50.916Z,61.43
2019-01-30T12:17:21.952Z,55.63
2019-01-30T12:19:54.248Z,58.07
2019-01-30T12:22:26.002Z,58.90
2019-01-30T12:24:59.181Z,59.93
2019-01-30T12:27:32.895Z,59.53
2019-01-30T12:30:05.357Z,59.67
2019-01-30T12:32:38.150Z,59.40
2019-01-30T12:35:10.958Z,58.37
2019-01-30T12:37:42.678Z,61.20
2019-01-30T12:40:16.997Z,55.92
2019-01-30T12:42:51.311Z,55.27
2019-01-30T12:45:29.131Z,61.37
2019-01-30T12:48:05.591Z,57.83
2019-01-30T12:50:38.798Z,56.40
2019-01-30T12:53:11.528Z,60.27
2019-01-30T12:55:46.192Z,51.53
2019-01-30T12:58:21.456Z,53.07
2019-01-30T13:00:55.183Z,53.63
2019-01-30T13:03:28.297Z,56.97
2019-01-30T13:06:00.797Z,55.77
2019-01-30T13:08:33.811Z,55.37
2019-01-30T13:11:06.949Z,51.57
2019-01-30T13:13:38.744Z,54.43
2019-01-30T13:16:12.722Z,54.20
2019-01-30T13:18:43.768Z,52.93
2019-01-30T13:21:17.469Z,55.55
2019-01-30T13:23:49.971Z,57.47
2019-01-30T13:26:22.601Z,55.25
2019-01-30T13:28:54.648Z,59.20
2019-01-30T13:31:30.098Z,59.17
2019-01-30T13:34:05.164Z,56.73
2019-01-30T13:36:40.174Z,59.50
2019-01-30T13:39:13.787Z,59.80
2019-01-30T13:41:46.637Z,55.30
2019-01-30T13:44:21.208Z,56.13
2019-01-30T13:46:53.335Z,59.43
2019-01-30T13:49:27.135Z,63.37
2019-01-30T13:51:58.706Z,63.53
2019-01-30T13:54:30.907Z,58.93
2019-01-30T13:57:02.116Z,63.70
2019-01-30T13:59:34.909Z,63.40
2019-01-30T14:02:09.098Z,59.93
2019-01-30T14:04:40.132Z,60.13
2019-01-30T14:07:11.265Z,57.13
2019-01-30T14:09:43.463Z,60.53
2019-01-30T14:12:15.186Z,64.77
2019-01-30T14:14:47.419Z,65.17
2019-01-30T14:17:24.865Z,62.13
2019-01-30T14:19:56.039Z,66.77
2019-01-30T14:22:28.977Z,62.00
2019-01-30T14:25:02.349Z,75.83
2019-01-30T14:27:35.131Z,76.53
2019-01-30T14:30:13.486Z,74.43
2019-01-30T14:32:47.195Z,44.05
2019-01-30T14:35:20.570Z,41.03
2019-01-30T14:37:52.273Z,38.50
2019-01-30T14:40:24.891Z,46.70
2019-01-30T14:42:56.173Z,48.30
2019-01-30T14:45:27.370Z,65.80
2019-01-30T14:47:58.730Z,60.50
2019-01-30T14:50:29.997Z,63.17
2019-01-30T14:53:01.186Z,63.10
2019-01-30T14:55:36.718Z,64.97
2019-01-30T14:58:09.666Z,49.70
2019-01-30T15:00:40.943Z,45.63
2019-01-30T15:03:15.840Z,47.30
2019-01-30T15:05:49.954Z,51.00
2019-01-30T15:08:24.213Z,45.60
2019-01-30T15:10:56.142Z,42.17
2019-01-30T15:13:27.932Z,47.85
2019-01-30T15:15:58.972Z,38.77
2019-01-30T15:18:30.662Z,35.80
2019-01-30T15:21:03.500Z,36.53
2019-01-30T15:23:34.657Z,41.17
2019-01-30T15:26:06.709Z,46.15
2019-01-30T15:28:37.757Z,43.63
2019-01-30T15:31:08.940Z,33.83
2019-01-30T15:33:41.046Z,33.47
2019-01-30T15:36:13.028Z,39.50
2019-01-30T15:38:46.190Z,43.23
2019-01-30T15:41:17.629Z,35.30
2019-01-30T15:43:49.739Z,35.00
2019-01-30T15:46:21.715Z,37.83
2019-01-30T15:48:53.790Z,34.55
2019-01-30T15:51:25.143Z,50.90
2019-01-30T15:53:57.579Z,48.90
2019-01-30T15:56:30.358Z,45.60
2019-01-30T15:59:01.543Z,51.83
2019-01-30T16:01:39.477Z,48.33
2019-01-30T16:04:10.550Z,47.33
2019-01-30T16:06:41.567Z,42.33
2019-01-30T16:09:12.688Z,41.58
2019-01-30T16:11:44.365Z,39.57
2019-01-30T16:14:17.534Z,37.30
2019-01-30T16:16:49.841Z,34.00
2019-01-30T16:19:20.942Z,37.28
2019-01-30T16:21:52.409Z,38.03
2019-01-30T16:24:24.031Z,38.83
2019-01-30T16:26:55.744Z,43.37
2019-01-30T16:29:27.081Z,46.23
2019-01-30T16:31:58.986Z,49.17
2019-01-30T16:34:30.416Z,54.27
2019-01-30T16:37:02.346Z,65.20
2019-01-30T16:39:33.656Z,68.60
2019-01-30T16:42:05.412Z,83.50
2019-01-30T16:44:36.567Z,91.20
2019-01-30T16:47:08.233Z,91.37
2019-01-30T16:49:40.584Z,92.10
2019-01-30T16:52:11.780Z,101.97
2019-01-30T16:54:43.598Z,106.57
2019-01-30T16:57:15.367Z,113.53
2019-01-30T16:59:46.731Z,114.10
2019-01-30T17:02:17.781Z,127.72
2019-01-30T17:04:49.395Z,130.72
2019-01-30T17:07:20.607Z,128.63
2019-01-30T17:09:52.329Z,132.27
2019-01-30T17:12:24.456Z,135.47
2019-01-30T17:14:56.063Z,128.43
2019-01-30T17:17:27.260Z,121.13
2019-01-30T17:19:58.383Z,125.73
2019-01-30T17:22:29.519Z,124.77
2019-01-30T17:25:00.753Z,125.63
2019-01-30T17:27:31.802Z,120.30
2019-01-30T17:30:03.021Z,122.40
2019-01-30T17:32:34.227Z,122.60
2019-01-30T17:35:06.510Z,125.18
2019-01-30T17:37:37.634Z,132.03
2019-01-30T17:40:13.476Z,132.97
2019-01-30T17:42:44.611Z,146.53
2019-01-30T17:45:15.845Z,161.65
2019-01-30T17:47:47.302Z,164.13
2019-01-30T17:50:20.949Z,157.45
2019-01-30T17:52:52.150Z,159.40
2019-01-30T17:55:26.019Z,162.70
2019-01-30T17:57:56.538Z,152.50
2019-01-30T18:00:57.654Z,150.10
2019-01-30T18:03:28.769Z,151.13
2019-01-30T18:05:59.819Z,148.00
2019-01-30T18:08:30.951Z,154.47
2019-01-30T18:11:01.969Z,143.67
2019-01-30T18:13:32.994Z,143.93
2019-01-30T18:16:04.253Z,148.47
2019-01-30T18:18:35.764Z,147.43
2019-01-30T18:21:06.745Z,151.07
2019-01-30T18:23:37.845Z,150.60
2019-01-30T18:26:08.822Z,139.03
2019-01-30T18:28:39.853Z,150.00
2019-01-30T18:31:10.925Z,144.22
2019-01-30T18:33:42.337Z,148.93
2019-01-30T18:36:13.688Z,151.90
2019-01-30T18:38:44.964Z,146.93
2019-01-30T18:41:16.031Z,146.30
2019-01-30T18:43:47.075Z,155.77
2019-01-30T18:46:18.281Z,148.03
2019-01-30T18:48:49.492Z,137.50
2019-01-30T18:51:20.575Z,129.93
2019-01-30T18:53:51.743Z,134.80
2019-01-30T18:56:23.090Z,128.10
2019-01-30T18:58:54.331Z,137.83
2019-01-30T19:01:25.791Z,139.43
2019-01-30T19:03:56.899Z,133.40
2019-01-30T19:06:28.149Z,139.57
2019-01-30T19:08:59.242Z,146.90
2019-01-30T19:11:30.841Z,137.83
2019-01-30T19:14:01.950Z,146.43
2019-01-30T19:16:33.122Z,133.70
2019-01-30T19:19:04.411Z,137.60
2019-01-30T19:21:36.337Z,127.07
2019-01-30T19:24:07.599Z,128.60
2019-01-30T19:26:38.803Z,130.83
2019-01-30T19:29:11.651Z,127.20
2019-01-30T19:31:42.692Z,121.87
2019-01-30T19:34:15.436Z,115.10
2019-01-30T19:36:46.954Z,108.70
2019-01-30T19:39:17.977Z,124.22
2019-01-30T19:41:50.359Z,118.03
2019-01-30T19:44:21.688Z,120.67
2019-01-30T19:46:55.833Z,117.53
2019-01-30T19:49:25.889Z,127.00
2019-01-30T19:51:57.279Z,127.63
2019-01-30T19:54:28.394Z,118.83
2019-01-30T19:56:59.698Z,121.00
2019-01-30T19:59:30.698Z,120.47
2019-01-30T20:02:02.198Z,122.72
2019-01-30T20:04:35.090Z,115.07
2019-01-30T20:07:14.507Z,103.60
2019-01-30T20:09:39.298Z,104.35
2019-01-30T20:12:10.445Z,114.12
2019-01-30T20:14:41.706Z,98.60
2019-01-30T20:17:13.150Z,95.57
2019-01-30T20:19:44.736Z,94.72
2019-01-30T20:22:15.915Z,88.85
2019-01-30T20:24:46.973Z,80.87
2019-01-30T20:27:18.387Z,83.27
2019-01-30T20:29:49.729Z,85.40
2019-01-30T20:32:20.723Z,80.87
2019-01-30T20:34:52.488Z,82.97
2019-01-30T20:37:26.374Z,74.63
2019-01-30T20:39:56.717Z,79.03
2019-01-30T20:42:27.921Z,79.47
2019-01-30T20:44:58.985Z,72.93
2019-01-30T20:47:30.031Z,68.67
2019-01-30T20:50:01.123Z,73.40
2019-01-30T20:52:32.412Z,73.63
2019-01-30T20:55:04.626Z,81.47
2019-01-30T20:57:35.886Z,80.03
2019-01-30T21:00:10.368Z,77.57
2019-01-30T21:02:41.841Z,77.50
2019-01-30T21:05:13.326Z,80.17
2019-01-30T21:07:44.613Z,79.80
2019-01-30T21:10:18.741Z,77.72
2019-01-30T21:12:51.546Z,67.03
2019-01-30T21:15:23.548Z,69.13
2019-01-30T21:17:58.111Z,65.23
2019-01-30T21:20:29.215Z,63.37
2019-01-30T21:23:01.376Z,64.23
2019-01-30T21:25:33.861Z,64.47
2019-01-30T21:28:05.433Z,72.57
2019-01-30T21:30:37.806Z,72.87
2019-01-30T21:33:08.996Z,71.50
2019-01-30T21:35:40.776Z,75.13
2019-01-30T21:38:11.908Z,71.28
2019-01-30T21:40:43.195Z,66.10
2019-01-30T21:43:14.366Z,72.57
2019-01-30T21:45:45.436Z,79.97
2019-01-30T21:48:17.603Z,86.23
2019-01-30T21:50:48.887Z,81.05
2019-01-30T21:53:20.050Z,81.47
2019-01-30T21:55:51.254Z,86.77
2019-01-30T21:58:22.398Z,82.25
2019-01-30T22:00:53.731Z,70.97
2019-01-30T22:03:25.121Z,74.82
2019-01-30T22:05:56.945Z,74.07
2019-01-30T22:08:27.999Z,71.63
2019-01-30T22:10:59.125Z,70.83
2019-01-30T22:13:30.264Z,65.37
2019-01-30T22:16:01.416Z,68.80
2019-01-30T22:18:32.660Z,68.40
2019-01-30T22:21:03.759Z,73.10
2019-01-30T22:23:35.085Z,67.70
2019-01-30T22:26:06.275Z,69.87
2019-01-30T22:28:37.463Z,70.80
2019-01-30T22:31:10.054Z,64.27
2019-01-30T22:33:41.337Z,66.63
2019-01-30T22:36:12.802Z,71.42
2019-01-30T22:38:45.337Z,70.20
2019-01-30T22:41:16.483Z,72.82
2019-01-30T22:43:48.689Z,72.77
2019-01-30T22:46:21.090Z,77.47
2019-01-30T22:48:55.041Z,83.20
2019-01-30T22:51:26.674Z,85.70
2019-01-30T22:53:58.800Z,79.73
2019-01-30T22:56:30.047Z,85.77
2019-01-30T22:59:01.285Z,98.83
2019-01-30T23:02:02.716Z,108.97
2019-01-30T23:05:26.694Z,110.90
2019-01-30T23:08:22.925Z,102.47
2019-01-30T23:11:17.255Z,106.90
2019-01-30T23:14:27.272Z,107.50
2019-01-30T23:17:28.522Z,98.23
2019-01-30T23:20:31.353Z,109.27
2019-01-30T23:23:27.727Z,106.37
2019-01-30T23:26:17.617Z,109.43
2019-01-30T23:29:34.207Z,105.90
2019-01-30T23:32:43.917Z,102.60
2019-01-30T23:35:50.444Z,104.72
2019-01-30T23:38:53.450Z,102.05
2019-01-30T23:41:55.726Z,109.47
2019-01-30T23:44:56.641Z,108.67
2019-01-30T23:48:17.758Z,101.93
2019-01-30T23:51:16.306Z,107.67
2019-01-30T23:54:16.045Z,113.80
2019-01-30T23:57:10.431Z,107.23
